Time;durP1;ratioP1;P1;durP2;ratioP2;P2;SDS_P1;SDS_P2;PMS_P1;PMS_P2;Temp;Humidity;BMP_temperature;BMP_pressure;BME280_temperature;BME280_humidity;BME280_pressure;Samples;Min_cycle;Max_cycle;Signal;HPM_P1;HPM_P2
2023/08/04 00:01:15;;;;;;;;;;;15.90;87.90;;;;;;5115426;28;20293;-44
2023/08/04 00:03:41;;;;;;;;;;;15.90;88.00;;;;;;5114939;28;20260;-43
2023/08/04 00:06:09;;;;;;;;;;;15.90;88.00;;;;;;5114707;28;20019;-44
2023/08/04 00:08:35;;;;;;;;;;;15.90;88.00;;;;;;5114918;28;19907;-44
2023/08/04 00:11:01;;;;;;;;;;;15.80;87.90;;;;;;5114980;28;19908;-44
2023/08/04 00:13:26;;;;;;;;;;;15.80;88.00;;;;;;5114900;28;20278;-44
2023/08/04 00:15:51;;;;;;;;;;;15.80;88.00;;;;;;5114719;28;19916;-44
2023/08/04 00:18:17;;;;;;;;;;;15.80;88.00;;;;;;5115071;28;20003;-44
2023/08/04 00:20:42;;;;;;;;;;;15.80;88.10;;;;;;5114635;28;19956;-42
2023/08/04 00:23:08;;;;;;;;;;;15.80;88.10;;;;;;5114556;28;19908;-43
2023/08/04 00:25:33;;;;;;;;;;;15.80;88.00;;;;;;5114648;28;20140;-42
2023/08/04 00:27:59;;;;;;;;;;;15.80;88.00;;;;;;5096142;28;19908;-42
2023/08/04 00:30:25;;;;;;;;;;;15.90;88.00;;;;;;5114483;28;20279;-43
2023/08/04 00:32:51;;;;;;;;;;;15.90;88.00;;;;;;5114427;28;19908;-44
2023/08/04 00:35:16;;;;;;;;;;;15.90;88.00;;;;;;5114357;28;19918;-44
2023/08/04 00:37:42;;;;;;;;;;;15.90;88.00;;;;;;5114323;28;19914;-41
2023/08/04 00:40:08;;;;;;;;;;;15.90;87.90;;;;;;5095902;28;19907;-43
2023/08/04 00:42:33;;;;;;;;;;;15.90;87.90;;;;;;5114163;28;19968;-42
2023/08/04 00:44:59;;;;;;;;;;;15.90;87.90;;;;;;5114263;28;19914;-43
2023/08/04 00:47:29;;;;;;;;;;;15.90;87.90;;;;;;5114427;28;19934;-41
2023/08/04 00:49:55;;;;;;;;;;;15.90;88.00;;;;;;5113994;28;19908;-42
2023/08/04 00:52:20;;;;;;;;;;;15.80;88.00;;;;;;5114134;28;19960;-43
2023/08/04 00:54:46;;;;;;;;;;;15.80;88.70;;;;;;5112939;28;20392;-43
2023/08/04 00:57:11;;;;;;;;;;;15.80;88.10;;;;;;5113816;28;19915;-41
2023/08/04 00:59:37;;;;;;;;;;;15.80;88.10;;;;;;5113917;28;20350;-43
2023/08/04 01:02:02;;;;;;;;;;;15.80;88.20;;;;;;5113848;28;19919;-41
2023/08/04 01:04:28;;;;;;;;;;;15.70;88.20;;;;;;5114036;28;20177;-42
2023/08/04 01:06:55;;;;;;;;;;;15.70;88.30;;;;;;5113661;28;19974;-40
2023/08/04 01:09:30;;;;;;;;;;;15.70;88.30;;;;;;5113737;28;19907;-42
2023/08/04 01:12:00;;;;;;;;;;;15.70;88.40;;;;;;5113743;28;19912;-42
2023/08/04 01:14:27;;;;;;;;;;;15.70;88.40;;;;;;5113506;28;19943;-43
2023/08/04 01:16:53;;;;;;;;;;;15.70;88.40;;;;;;5113558;28;20386;-43
2023/08/04 01:19:18;;;;;;;;;;;15.70;88.40;;;;;;5113542;28;19908;-42
2023/08/04 01:21:43;;;;;;;;;;;15.70;88.40;;;;;;5113403;28;20372;-41
2023/08/04 01:24:09;;;;;;;;;;;15.70;88.90;;;;;;5113388;28;19930;-39
2023/08/04 01:26:37;;;;;;;;;;;15.70;88.30;;;;;;5113444;28;19908;-40
2023/08/04 01:29:02;;;;;;;;;;;15.80;88.30;;;;;;5113411;28;19915;-44
2023/08/04 01:31:28;;;;;;;;;;;15.80;88.20;;;;;;5113334;28;19908;-44
2023/08/04 01:33:54;;;;;;;;;;;15.80;88.20;;;;;;5113124;28;19907;-44
2023/08/04 01:36:20;;;;;;;;;;;15.90;88.20;;;;;;5113610;28;20374;-44
2023/08/04 01:38:45;;;;;;;;;;;15.90;88.10;;;;;;5113155;28;19915;-43
2023/08/04 01:41:10;;;;;;;;;;;15.90;88.10;;;;;;5113130;28;19908;-48
2023/08/04 01:43:36;;;;;;;;;;;15.90;88.00;;;;;;5094828;28;19914;-43
2023/08/04 01:46:01;;;;;;;;;;;15.90;88.00;;;;;;5094703;28;19908;-44
2023/08/04 01:48:27;;;;;;;;;;;15.90;88.00;;;;;;5112967;28;19908;-43
2023/08/04 01:50:53;;;;;;;;;;;15.90;88.00;;;;;;5094620;28;19969;-43
2023/08/04 01:53:18;;;;;;;;;;;16.00;88.70;;;;;;5112877;28;19908;-42
2023/08/04 01:55:47;;;;;;;;;;;16.00;88.00;;;;;;5112796;28;20233;-42
2023/08/04 01:58:12;;;;;;;;;;;16.00;88.00;;;;;;5094395;28;19914;-37
2023/08/04 02:00:38;;;;;;;;;;;16.00;88.00;;;;;;5112769;28;19907;-40
2023/08/04 02:03:03;;;;;;;;;;;16.00;88.10;;;;;;5094395;28;19914;-43
2023/08/04 02:05:29;;;;;;;;;;;16.00;88.10;;;;;;5112350;28;19951;-41
2023/08/04 02:07:54;;;;;;;;;;;16.00;88.00;;;;;;5112659;28;19907;-40
2023/08/04 02:10:20;;;;;;;;;;;16.00;88.00;;;;;;5112760;28;19914;-42
2023/08/04 02:12:47;;;;;;;;;;;16.00;88.00;;;;;;5112131;28;20337;-42
2023/08/04 02:15:12;;;;;;;;;;;16.00;88.10;;;;;;5112570;28;19969;-41
2023/08/04 02:17:38;;;;;;;;;;;16.00;88.10;;;;;;5112518;28;20018;-43
2023/08/04 02:20:03;;;;;;;;;;;16.00;88.10;;;;;;5112648;28;19947;-40
2023/08/04 02:22:29;;;;;;;;;;;16.00;88.10;;;;;;5113142;28;19915;-40
2023/08/04 02:24:54;;;;;;;;;;;16.00;88.10;;;;;;5112516;28;19939;-40
2023/08/04 02:27:20;;;;;;;;;;;16.00;88.10;;;;;;5112515;28;19915;-43
2023/08/04 02:29:45;;;;;;;;;;;16.00;88.10;;;;;;5112359;28;20497;-41
2023/08/04 02:32:11;;;;;;;;;;;16.00;88.10;;;;;;5112478;28;19908;-40
2023/08/04 02:34:36;;;;;;;;;;;16.00;88.10;;;;;;5112317;28;19964;-39
2023/08/04 02:37:02;;;;;;;;;;;16.00;88.10;;;;;;5112525;28;19919;-42
2023/08/04 02:39:27;;;;;;;;;;;16.00;88.10;;;;;;5112301;28;20379;-41
2023/08/04 02:41:53;;;;;;;;;;;15.90;88.10;;;;;;5112416;28;19908;-41
2023/08/04 02:44:18;;;;;;;;;;;15.90;88.20;;;;;;5112373;28;19912;-41
2023/08/04 02:46:45;;;;;;;;;;;15.90;88.20;;;;;;5112301;28;19934;-41
2023/08/04 02:49:10;;;;;;;;;;;15.90;88.30;;;;;;5112606;28;19908;-42
2023/08/04 02:51:36;;;;;;;;;;;15.90;88.30;;;;;;5093997;28;20007;-39
2023/08/04 02:54:01;;;;;;;;;;;15.90;88.30;;;;;;5112189;28;19957;-40
2023/08/04 02:56:27;;;;;;;;;;;15.90;88.30;;;;;;5112227;28;19915;-37
2023/08/04 02:58:52;;;;;;;;;;;15.90;88.30;;;;;;5112304;28;19908;-42
2023/08/04 03:01:18;;;;;;;;;;;15.90;88.40;;;;;;5112204;28;19907;-41
2023/08/04 03:03:43;;;;;;;;;;;15.90;88.40;;;;;;5112196;28;20375;-41
2023/08/04 03:06:09;;;;;;;;;;;15.80;88.30;;;;;;5112074;28;20343;-43
2023/08/04 03:08:34;;;;;;;;;;;15.90;88.40;;;;;;5112148;28;20414;-42
2023/08/04 03:11:00;;;;;;;;;;;15.80;88.40;;;;;;5112122;28;20313;-40
2023/08/04 03:13:26;;;;;;;;;;;15.90;88.40;;;;;;5112103;28;19973;-42
2023/08/04 03:15:55;;;;;;;;;;;15.90;88.40;;;;;;5112028;28;19995;-43
2023/08/04 03:18:21;;;;;;;;;;;15.90;88.40;;;;;;5097094;28;19912;-43
2023/08/04 03:20:46;;;;;;;;;;;15.90;88.30;;;;;;5115874;28;20581;-42
2023/08/04 03:23:12;;;;;;;;;;;15.90;88.30;;;;;;5115833;28;19911;-43
2023/08/04 03:25:37;;;;;;;;;;;16.00;88.40;;;;;;5115748;28;20382;-41
2023/08/04 03:28:03;;;;;;;;;;;16.00;88.30;;;;;;5115967;28;19926;-43
2023/08/04 03:30:28;;;;;;;;;;;16.00;88.30;;;;;;5115560;28;19916;-40
2023/08/04 03:32:54;;;;;;;;;;;15.90;88.20;;;;;;5115602;28;19999;-43
2023/08/04 03:35:19;;;;;;;;;;;16.00;88.30;;;;;;5115420;28;20290;-41
2023/08/04 03:37:45;;;;;;;;;;;16.00;88.30;;;;;;5115527;28;20429;-43
2023/08/04 03:40:10;;;;;;;;;;;16.00;88.30;;;;;;5115432;28;19912;-41
2023/08/04 03:42:37;;;;;;;;;;;16.00;88.30;;;;;;5115358;28;19918;-41
2023/08/04 03:45:02;;;;;;;;;;;16.00;88.30;;;;;;5115402;28;19912;-41
2023/08/04 03:47:29;;;;;;;;;;;16.00;88.30;;;;;;5115337;28;19912;-43
2023/08/04 03:49:55;;;;;;;;;;;15.90;88.90;;;;;;5115172;28;20371;-43
2023/08/04 03:52:20;;;;;;;;;;;16.00;88.30;;;;;;5115260;28;19949;-40
2023/08/04 03:54:46;;;;;;;;;;;15.90;88.30;;;;;;5115076;28;19959;-42
2023/08/04 03:57:11;;;;;;;;;;;15.90;88.30;;;;;;5115063;28;19980;-43
2023/08/04 03:59:37;;;;;;;;;;;15.90;88.40;;;;;;5115139;28;19943;-39
2023/08/04 04:02:02;;;;;;;;;;;15.90;88.40;;;;;;5115353;28;19950;-39
2023/08/04 04:04:28;;;;;;;;;;;15.90;88.40;;;;;;5114750;28;20303;-43
2023/08/04 04:06:53;;;;;;;;;;;15.90;88.40;;;;;;5114798;28;19955;-42
2023/08/04 04:09:19;;;;;;;;;;;15.90;88.50;;;;;;5114924;28;19912;-39
2023/08/04 04:11:44;;;;;;;;;;;15.90;88.50;;;;;;5114577;28;19965;-43
2023/08/04 04:14:10;;;;;;;;;;;15.90;88.50;;;;;;5114638;28;19916;-41
2023/08/04 04:16:36;;;;;;;;;;;15.90;88.50;;;;;;5114685;28;20298;-42
2023/08/04 04:19:01;;;;;;;;;;;15.90;88.50;;;;;;5114702;28;20259;-43
2023/08/04 04:21:26;;;;;;;;;;;15.90;88.50;;;;;;5114656;28;20006;-43
2023/08/04 04:23:52;;;;;;;;;;;15.90;88.50;;;;;;5114734;28;19918;-43
2023/08/04 04:26:17;;;;;;;;;;;15.90;88.50;;;;;;5114586;28;19912;-43
2023/08/04 04:28:43;;;;;;;;;;;15.90;88.50;;;;;;5114577;28;20012;-45
2023/08/04 04:31:08;;;;;;;;;;;15.90;88.50;;;;;;5114448;28;19912;-43
2023/08/04 04:33:34;;;;;;;;;;;15.90;88.50;;;;;;5114479;28;20291;-41
2023/08/04 04:35:59;;;;;;;;;;;15.90;88.50;;;;;;5114243;28;19915;-43
2023/08/04 04:38:28;;;;;;;;;;;15.90;88.50;;;;;;5114384;28;19939;-40
2023/08/04 04:40:54;;;;;;;;;;;16.00;88.50;;;;;;5114402;28;19911;-42
2023/08/04 04:43:20;;;;;;;;;;;16.00;88.50;;;;;;5114194;28;20336;-43
2023/08/04 04:45:49;;;;;;;;;;;16.00;88.50;;;;;;5114165;28;19912;-42
2023/08/04 04:48:14;;;;;;;;;;;16.00;88.50;;;;;;5114230;28;20322;-39
2023/08/04 04:50:39;;;;;;;;;;;16.00;88.40;;;;;;5114083;28;19912;-42
2023/08/04 04:53:05;;;;;;;;;;;16.00;88.40;;;;;;5114175;28;20287;-42
2023/08/04 04:55:30;;;;;;;;;;;16.00;88.40;;;;;;5113915;28;19951;-38
2023/08/04 04:57:56;;;;;;;;;;;16.00;88.40;;;;;;5113949;28;19938;-40
2023/08/04 05:00:21;;;;;;;;;;;16.10;88.40;;;;;;5113843;28;19937;-43
2023/08/04 05:02:47;;;;;;;;;;;16.10;88.30;;;;;;5113888;28;19935;-42
2023/08/04 05:05:12;;;;;;;;;;;16.10;88.30;;;;;;5113602;28;19920;-40
2023/08/04 05:07:38;;;;;;;;;;;16.10;88.40;;;;;;5113665;28;20379;-41
2023/08/04 05:10:04;;;;;;;;;;;16.10;88.40;;;;;;5114095;28;20367;-43
2023/08/04 05:12:29;;;;;;;;;;;16.10;88.40;;;;;;5113738;28;19918;-40
2023/08/04 05:14:55;;;;;;;;;;;16.20;88.40;;;;;;5113475;28;19916;-38
2023/08/04 05:17:20;;;;;;;;;;;16.20;88.40;;;;;;5113602;28;19918;-40
2023/08/04 05:19:45;;;;;;;;;;;16.20;88.40;;;;;;5095334;28;20462;-37
2023/08/04 05:22:11;;;;;;;;;;;16.20;88.30;;;;;;5113586;28;19912;-42
2023/08/04 05:24:37;;;;;;;;;;;16.30;88.40;;;;;;5113465;28;19912;-41
2023/08/04 05:27:04;;;;;;;;;;;16.30;88.30;;;;;;5113491;28;20371;-40
2023/08/04 05:29:29;;;;;;;;;;;16.30;88.30;;;;;;5113377;28;20337;-40
2023/08/04 05:31:55;;;;;;;;;;;16.40;88.30;;;;;;5113433;28;19912;-42
2023/08/04 05:34:20;;;;;;;;;;;16.40;88.20;;;;;;5113098;28;20030;-38
2023/08/04 05:36:47;;;;;;;;;;;16.40;88.20;;;;;;5113258;28;20414;-39
2023/08/04 05:39:13;;;;;;;;;;;16.40;88.10;;;;;;5112774;28;19911;-39
2023/08/04 05:41:38;;;;;;;;;;;16.50;88.10;;;;;;5113128;28;20331;-41
2023/08/04 05:44:04;;;;;;;;;;;16.60;88.10;;;;;;5094824;28;20007;-35
2023/08/04 05:46:29;;;;;;;;;;;16.60;88.00;;;;;;5113402;28;19911;-41
2023/08/04 05:48:55;;;;;;;;;;;16.60;87.90;;;;;;5113215;28;20264;-39
2023/08/04 05:51:20;;;;;;;;;;;16.70;87.80;;;;;;5113384;28;19977;-39
2023/08/04 05:53:46;;;;;;;;;;;16.70;87.70;;;;;;5112974;28;19916;-37
2023/08/04 05:56:11;;;;;;;;;;;16.80;87.70;;;;;;5112850;28;19916;-41
2023/08/04 05:58:37;;;;;;;;;;;16.80;87.70;;;;;;5112918;28;19984;-36
2023/08/04 06:01:02;;;;;;;;;;;16.80;87.70;;;;;;5112927;28;19912;-40
2023/08/04 06:03:28;;;;;;;;;;;16.90;87.70;;;;;;5112763;28;19919;-43
2023/08/04 06:05:54;;;;;;;;;;;16.90;87.60;;;;;;5112784;28;20375;-40
2023/08/04 06:08:19;;;;;;;;;;;16.90;87.60;;;;;;5112750;28;19915;-41
2023/08/04 06:10:44;;;;;;;;;;;16.90;87.50;;;;;;5112994;28;19998;-41
2023/08/04 06:13:10;;;;;;;;;;;17.00;87.60;;;;;;5112636;28;19912;-40
2023/08/04 06:15:36;;;;;;;;;;;17.00;87.50;;;;;;5112627;28;20337;-41
2023/08/04 06:18:01;;;;;;;;;;;17.00;87.50;;;;;;5112568;28;19919;-41
2023/08/04 06:20:27;;;;;;;;;;;17.00;87.50;;;;;;5112633;28;20347;-39
2023/08/04 06:22:52;;;;;;;;;;;17.10;87.50;;;;;;5112668;28;19912;-43
2023/08/04 06:25:18;;;;;;;;;;;17.10;87.50;;;;;;5112479;28;20367;-41
2023/08/04 06:27:44;;;;;;;;;;;17.10;87.40;;;;;;5112492;28;19912;-42
2023/08/04 06:30:10;;;;;;;;;;;17.20;87.40;;;;;;5112423;28;19912;-38
2023/08/04 06:32:35;;;;;;;;;;;17.20;87.30;;;;;;5094216;28;19994;-40
2023/08/04 06:35:01;;;;;;;;;;;17.30;87.30;;;;;;5112203;28;19916;-40
2023/08/04 06:37:26;;;;;;;;;;;17.40;87.20;;;;;;5112704;28;20323;-42
2023/08/04 06:39:52;;;;;;;;;;;17.40;87.10;;;;;;5112177;28;19915;-42
2023/08/04 06:42:18;;;;;;;;;;;17.50;87.00;;;;;;5112367;28;19908;-42
2023/08/04 06:44:44;;;;;;;;;;;17.50;86.90;;;;;;5112328;28;19974;-42
2023/08/04 06:47:09;;;;;;;;;;;17.60;86.90;;;;;;5112200;28;19911;-43
2023/08/04 06:49:35;;;;;;;;;;;17.60;86.90;;;;;;5112274;28;20256;-41
2023/08/04 06:52:01;;;;;;;;;;;17.70;86.90;;;;;;5113679;28;19962;-41
2023/08/04 06:54:26;;;;;;;;;;;17.70;86.80;;;;;;5116271;28;20379;-38
2023/08/04 06:56:52;;;;;;;;;;;17.80;86.70;;;;;;5116209;28;19999;-43
2023/08/04 06:59:17;;;;;;;;;;;17.80;86.60;;;;;;5116245;28;19908;-41
2023/08/04 07:01:43;;;;;;;;;;;17.90;86.60;;;;;;5116332;28;19961;-44
2023/08/04 07:04:08;;;;;;;;;;;17.90;86.50;;;;;;5115927;28;19908;-44
2023/08/04 07:06:34;;;;;;;;;;;17.90;86.40;;;;;;5115575;28;20290;-43
2023/08/04 07:08:59;;;;;;;;;;;17.90;86.40;;;;;;5114779;28;19968;-44
2023/08/04 07:11:25;;;;;;;;;;;17.90;86.40;;;;;;5115292;28;19908;-43
2023/08/04 07:13:50;;;;;;;;;;;18.00;86.40;;;;;;5115984;28;19908;-43
2023/08/04 07:16:16;;;;;;;;;;;18.10;86.20;;;;;;5115882;28;19915;-43
2023/08/04 07:18:41;;;;;;;;;;;18.10;86.10;;;;;;5115907;28;19908;-42
2023/08/04 07:21:07;;;;;;;;;;;18.20;86.00;;;;;;5115882;28;19969;-40
2023/08/04 07:23:33;;;;;;;;;;;18.30;86.00;;;;;;5115878;28;19908;-42
2023/08/04 07:25:58;;;;;;;;;;;18.30;85.80;;;;;;5115777;28;20416;-44
2023/08/04 07:28:24;;;;;;;;;;;18.40;85.70;;;;;;5115684;28;19915;-42
2023/08/04 07:30:49;;;;;;;;;;;18.50;85.60;;;;;;5115700;28;19915;-44
2023/08/04 07:33:15;;;;;;;;;;;18.50;85.40;;;;;;5115360;28;19908;-40
2023/08/04 07:35:40;;;;;;;;;;;18.60;85.40;;;;;;5115458;28;19954;-45
2023/08/04 07:38:06;;;;;;;;;;;18.60;85.40;;;;;;5115544;28;19912;-43
2023/08/04 07:40:31;;;;;;;;;;;18.60;85.10;;;;;;5115441;28;19912;-45
2023/08/04 07:42:57;;;;;;;;;;;18.60;85.20;;;;;;5115309;28;20283;-43
2023/08/04 07:45:22;;;;;;;;;;;18.60;85.20;;;;;;5115388;28;19914;-42
2023/08/04 07:47:47;;;;;;;;;;;18.70;85.10;;;;;;5115274;28;19915;-41
2023/08/04 07:50:13;;;;;;;;;;;18.70;85.10;;;;;;5115276;28;20408;-42
2023/08/04 07:52:38;;;;;;;;;;;18.70;85.00;;;;;;5096770;28;20344;-43
2023/08/04 07:55:04;;;;;;;;;;;18.80;85.00;;;;;;5115109;28;19911;-44
2023/08/04 07:57:29;;;;;;;;;;;18.80;85.00;;;;;;5115100;28;19908;-43
2023/08/04 07:59:55;;;;;;;;;;;18.90;85.00;;;;;;5115137;28;20588;-44
2023/08/04 08:02:20;;;;;;;;;;;19.00;84.90;;;;;;5114531;28;19908;-42
2023/08/04 08:04:46;;;;;;;;;;;19.00;84.60;;;;;;5114642;28;19923;-41
2023/08/04 08:07:11;;;;;;;;;;;19.00;84.40;;;;;;5114959;28;20299;-44
2023/08/04 08:09:37;;;;;;;;;;;19.00;84.40;;;;;;5114981;28;19908;-42
2023/08/04 08:12:02;;;;;;;;;;;19.00;84.20;;;;;;5114921;28;20073;-49
2023/08/04 08:14:28;;;;;;;;;;;19.00;84.40;;;;;;5114694;28;20366;-44
2023/08/04 08:16:53;;;;;;;;;;;19.00;84.40;;;;;;5114814;28;19933;-43
2023/08/04 08:19:19;;;;;;;;;;;19.00;83.70;;;;;;5114604;28;19908;-43
2023/08/04 08:21:44;;;;;;;;;;;19.00;84.10;;;;;;5114720;28;20426;-43
2023/08/04 08:24:10;;;;;;;;;;;19.00;84.00;;;;;;5114554;28;20286;-42
2023/08/04 08:26:35;;;;;;;;;;;19.00;84.00;;;;;;5114703;28;19964;-40
2023/08/04 08:29:04;;;;;;;;;;;19.00;84.00;;;;;;5114475;28;20455;-42
2023/08/04 08:31:30;;;;;;;;;;;19.10;83.00;;;;;;5114460;28;20010;-44
2023/08/04 08:33:55;;;;;;;;;;;19.10;83.70;;;;;;5114482;28;20092;-43
2023/08/04 08:36:21;;;;;;;;;;;19.20;83.30;;;;;;5114149;28;19918;-43
2023/08/04 08:38:46;;;;;;;;;;;19.30;83.20;;;;;;5114584;28;19962;-41
2023/08/04 08:41:13;;;;;;;;;;;19.30;83.00;;;;;;5114126;28;20363;-42
2023/08/04 08:43:43;;;;;;;;;;;19.30;82.30;;;;;;5114159;28;20355;-42
2023/08/04 08:46:09;;;;;;;;;;;19.20;82.40;;;;;;5114237;28;20366;-43
2023/08/04 08:48:37;;;;;;;;;;;19.20;82.80;;;;;;5114157;28;19907;-41
2023/08/04 08:51:04;;;;;;;;;;;19.10;82.90;;;;;;5114385;28;19907;-44
2023/08/04 08:53:31;;;;;;;;;;;19.10;82.30;;;;;;5113885;28;19908;-42
2023/08/04 08:55:59;;;;;;;;;;;19.00;82.60;;;;;;5114170;28;20490;-43
2023/08/04 08:58:25;;;;;;;;;;;19.00;82.60;;;;;;5114127;28;19908;-44
2023/08/04 09:00:51;;;;;;;;;;;19.10;82.60;;;;;;5113895;28;19956;-43
2023/08/04 09:03:17;;;;;;;;;;;19.20;81.20;;;;;;5113734;28;19916;-39
2023/08/04 09:05:42;;;;;;;;;;;19.20;80.20;;;;;;5113562;28;20022;-42
2023/08/04 09:08:08;;;;;;;;;;;19.20;80.60;;;;;;5113735;28;19914;-41
2023/08/04 09:10:36;;;;;;;;;;;19.30;80.90;;;;;;5113672;28;19912;-43
2023/08/04 09:13:06;;;;;;;;;;;19.40;80.60;;;;;;5113583;28;19953;-40
2023/08/04 09:15:33;;;;;;;;;;;19.50;79.60;;;;;;5112646;28;19965;-42
2023/08/04 09:17:59;;;;;;;;;;;19.60;80.30;;;;;;5113381;28;20002;-39
2023/08/04 09:20:26;;;;;;;;;;;19.70;80.00;;;;;;5113523;28;19947;-43
2023/08/04 09:22:52;;;;;;;;;;;19.80;76.50;;;;;;5113420;28;19940;-44
2023/08/04 09:25:18;;;;;;;;;;;19.80;78.60;;;;;;5113364;28;19945;-44
2023/08/04 09:27:49;;;;;;;;;;;19.90;79.20;;;;;;5113302;28;19907;-44
2023/08/04 09:30:15;;;;;;;;;;;20.00;79.20;;;;;;5094898;28;20002;-44
2023/08/04 09:32:42;;;;;;;;;;;20.10;79.40;;;;;;5113245;28;19955;-43
2023/08/04 09:35:08;;;;;;;;;;;20.10;79.00;;;;;;5113209;28;20662;-44
2023/08/04 09:37:34;;;;;;;;;;;20.20;79.00;;;;;;5113437;28;20313;-42
2023/08/04 09:40:01;;;;;;;;;;;20.30;79.10;;;;;;5113332;28;19908;-43
2023/08/04 09:42:26;;;;;;;;;;;20.30;78.70;;;;;;5094778;28;19918;-44
2023/08/04 09:44:52;;;;;;;;;;;20.30;78.50;;;;;;5112991;28;19908;-44
2023/08/04 09:47:25;;;;;;;;;;;20.30;77.30;;;;;;5113158;28;19908;-44
2023/08/04 09:49:51;;;;;;;;;;;20.30;77.90;;;;;;5112957;28;19930;-42
2023/08/04 09:52:21;;;;;;;;;;;20.30;77.80;;;;;;5112996;28;20294;-44
2023/08/04 09:54:46;;;;;;;;;;;20.40;78.10;;;;;;5113202;28;20371;-43
2023/08/04 09:57:13;;;;;;;;;;;20.40;78.10;;;;;;5112859;28;19914;-42
2023/08/04 09:59:39;;;;;;;;;;;20.40;78.20;;;;;;5113082;28;19914;-43
2023/08/04 10:02:05;;;;;;;;;;;20.40;78.40;;;;;;5112863;28;19908;-47
2023/08/04 10:04:32;;;;;;;;;;;20.40;78.20;;;;;;5112533;28;19916;-43
2023/08/04 10:06:58;;;;;;;;;;;20.50;78.10;;;;;;5113067;28;19908;-44
2023/08/04 10:09:24;;;;;;;;;;;20.50;77.70;;;;;;5112742;28;19915;-44
2023/08/04 10:11:49;;;;;;;;;;;20.60;77.80;;;;;;5094297;28;20330;-44
2023/08/04 10:14:15;;;;;;;;;;;20.70;77.30;;;;;;5112815;28;20270;-46
2023/08/04 10:16:41;;;;;;;;;;;20.80;76.60;;;;;;5112710;28;19911;-44
2023/08/04 10:19:07;;;;;;;;;;;20.80;77.20;;;;;;5113085;28;19916;-43
2023/08/04 10:21:36;;;;;;;;;;;20.80;76.60;;;;;;5112461;28;20287;-42
2023/08/04 10:24:02;;;;;;;;;;;20.90;77.00;;;;;;5112507;28;19908;-41
2023/08/04 10:26:31;;;;;;;;;;;20.90;76.80;;;;;;5112828;28;19965;-41
2023/08/04 10:29:02;;;;;;;;;;;20.90;76.50;;;;;;5112534;28;19911;-44
2023/08/04 10:31:40;;;;;;;;;;;20.90;76.70;;;;;;5112844;28;19908;-42
2023/08/04 10:34:16;;;;;;;;;;;21.10;76.80;;;;;;5112433;28;19911;-45
2023/08/04 10:37:00;;;;;;;;;;;21.20;76.60;;;;;;5112525;28;19912;-44
2023/08/04 10:39:31;;;;;;;;;;;21.40;76.10;;;;;;5112463;28;19999;-44
2023/08/04 10:41:56;;;;;;;;;;;21.60;76.30;;;;;;5112511;28;19922;-44
2023/08/04 10:44:27;;;;;;;;;;;21.70;74.90;;;;;;5112329;28;19908;-42
2023/08/04 10:46:58;;;;;;;;;;;21.70;75.70;;;;;;5112361;28;19998;-43
2023/08/04 10:49:23;;;;;;;;;;;21.60;73.90;;;;;;5112120;28;19908;-44
2023/08/04 10:51:49;;;;;;;;;;;21.50;74.50;;;;;;5112188;28;19908;-43
2023/08/04 10:54:15;;;;;;;;;;;21.50;74.70;;;;;;5111886;28;19908;-43
2023/08/04 10:56:40;;;;;;;;;;;21.50;74.40;;;;;;5112152;28;19915;-39
2023/08/04 10:59:08;;;;;;;;;;;21.50;74.90;;;;;;5112010;28;19908;-44
2023/08/04 11:01:34;;;;;;;;;;;21.60;74.50;;;;;;5112003;28;19972;-43
2023/08/04 11:03:59;;;;;;;;;;;21.70;74.60;;;;;;5111805;28;19908;-44
2023/08/04 11:06:25;;;;;;;;;;;21.90;74.80;;;;;;5111659;28;20312;-44
2023/08/04 11:08:51;;;;;;;;;;;22.00;74.60;;;;;;5112113;28;19915;-43
2023/08/04 11:11:17;;;;;;;;;;;22.10;74.30;;;;;;5111880;28;19916;-43
2023/08/04 11:13:43;;;;;;;;;;;22.10;74.20;;;;;;5112203;28;19908;-40
2023/08/04 11:16:08;;;;;;;;;;;22.10;73.30;;;;;;5111912;28;19912;-44
2023/08/04 11:18:34;;;;;;;;;;;22.10;73.60;;;;;;5112365;28;20002;-43
2023/08/04 11:21:00;;;;;;;;;;;22.10;73.80;;;;;;5111985;28;19957;-44
2023/08/04 11:23:27;;;;;;;;;;;22.10;73.70;;;;;;5112341;28;19908;-46
2023/08/04 11:25:54;;;;;;;;;;;22.10;73.90;;;;;;5111808;28;19964;-43
2023/08/04 11:28:20;;;;;;;;;;;22.10;73.90;;;;;;5111823;28;19912;-42
2023/08/04 11:30:45;;;;;;;;;;;22.10;73.70;;;;;;5112137;28;20334;-44
2023/08/04 11:33:11;;;;;;;;;;;22.20;72.50;;;;;;5112106;28;19944;-43
2023/08/04 11:35:36;;;;;;;;;;;22.40;72.90;;;;;;5111832;28;19954;-44
2023/08/04 11:38:03;;;;;;;;;;;22.50;72.70;;;;;;5113160;28;19908;-44
2023/08/04 11:40:29;;;;;;;;;;;22.60;72.50;;;;;;5115806;28;19915;-44
2023/08/04 11:42:59;;;;;;;;;;;22.50;71.80;;;;;;5115644;28;20271;-44
2023/08/04 11:45:25;;;;;;;;;;;22.30;72.00;;;;;;5115378;28;19908;-44
2023/08/04 11:47:53;;;;;;;;;;;22.10;72.10;;;;;;5115287;28;19908;-43
2023/08/04 11:50:19;;;;;;;;;;;21.90;72.20;;;;;;5115283;28;19911;-44
2023/08/04 11:52:47;;;;;;;;;;;21.70;69.90;;;;;;5096803;28;19914;-44
2023/08/04 11:55:13;;;;;;;;;;;21.50;68.30;;;;;;5115407;28;20317;-42
2023/08/04 11:57:51;;;;;;;;;;;21.40;71.10;;;;;;5115392;28;19908;-41
2023/08/04 12:00:17;;;;;;;;;;;21.30;71.80;;;;;;5115088;28;20252;-43
2023/08/04 12:02:59;;;;;;;;;;;21.20;72.30;;;;;;5115174;28;19912;-44
2023/08/04 12:05:28;;;;;;;;;;;21.00;72.90;;;;;;5114897;28;20398;-44
2023/08/04 12:07:55;;;;;;;;;;;20.80;73.70;;;;;;5115091;28;20348;-44
2023/08/04 12:10:21;;;;;;;;;;;20.60;74.20;;;;;;5114844;28;19916;-41
2023/08/04 12:12:47;;;;;;;;;;;20.50;74.60;;;;;;5114544;28;19911;-43
2023/08/04 12:15:12;;;;;;;;;;;20.50;74.90;;;;;;5115026;28;19961;-43
2023/08/04 12:17:38;;;;;;;;;;;20.50;75.00;;;;;;5114893;28;20003;-42
2023/08/04 12:20:05;;;;;;;;;;;20.50;75.30;;;;;;5114756;28;19994;-41
2023/08/04 12:22:33;;;;;;;;;;;20.60;75.30;;;;;;5114545;28;19907;-43
2023/08/04 12:24:59;;;;;;;;;;;20.70;75.20;;;;;;5114683;28;19916;-43
2023/08/04 12:27:24;;;;;;;;;;;20.70;75.00;;;;;;5114949;28;20386;-44
2023/08/04 12:29:50;;;;;;;;;;;20.80;75.00;;;;;;5096181;28;19915;-43
2023/08/04 12:32:15;;;;;;;;;;;20.90;74.70;;;;;;5114515;28;19994;-41
2023/08/04 12:34:40;;;;;;;;;;;21.00;74.70;;;;;;5114461;28;19911;-42
2023/08/04 12:37:06;;;;;;;;;;;21.20;74.50;;;;;;5114509;28;20365;-43
2023/08/04 12:39:31;;;;;;;;;;;21.40;74.30;;;;;;5114310;28;19912;-44
2023/08/04 12:41:57;;;;;;;;;;;21.60;73.90;;;;;;5114678;28;19915;-43
2023/08/04 12:44:22;;;;;;;;;;;21.70;73.60;;;;;;5114247;28;20310;-44
2023/08/04 12:46:48;;;;;;;;;;;21.90;72.90;;;;;;5114492;28;19922;-43
2023/08/04 12:49:13;;;;;;;;;;;22.10;73.10;;;;;;5113040;28;19908;-39
2023/08/04 12:51:39;;;;;;;;;;;22.40;72.70;;;;;;5114222;28;19947;-44
2023/08/04 12:54:04;;;;;;;;;;;22.50;72.70;;;;;;5114324;28;19957;-40
2023/08/04 12:56:30;;;;;;;;;;;22.50;72.80;;;;;;5113974;28;19942;-43
2023/08/04 12:58:55;;;;;;;;;;;22.40;72.80;;;;;;5114342;28;19908;-43
2023/08/04 13:01:21;;;;;;;;;;;22.10;72.80;;;;;;5113909;28;19915;-44
2023/08/04 13:03:46;;;;;;;;;;;21.90;73.30;;;;;;5114099;28;20323;-43
2023/08/04 13:06:12;;;;;;;;;;;21.80;73.20;;;;;;5113689;28;20022;-42
2023/08/04 13:08:37;;;;;;;;;;;21.50;73.30;;;;;;5114035;28;19915;-44
2023/08/04 13:11:03;;;;;;;;;;;21.30;74.00;;;;;;5113929;28;20436;-44
2023/08/04 13:13:28;;;;;;;;;;;21.00;74.50;;;;;;5113673;28;19908;-44
2023/08/04 13:15:53;;;;;;;;;;;20.70;74.70;;;;;;5113615;28;20335;-44
2023/08/04 13:18:19;;;;;;;;;;;20.40;75.70;;;;;;5114180;28;19951;-44
2023/08/04 13:20:44;;;;;;;;;;;20.20;76.50;;;;;;5113601;28;19915;-46
2023/08/04 13:23:10;;;;;;;;;;;20.10;76.90;;;;;;5113571;28;20346;-45
2023/08/04 13:25:39;;;;;;;;;;;20.10;77.30;;;;;;5113336;28;19908;-41
2023/08/04 13:28:05;;;;;;;;;;;20.00;77.50;;;;;;5113458;28;20387;-42
2023/08/04 13:30:31;;;;;;;;;;;20.00;77.60;;;;;;5113589;28;19939;-43
2023/08/04 13:32:56;;;;;;;;;;;20.00;77.70;;;;;;5113421;28;19912;-43
2023/08/04 13:35:22;;;;;;;;;;;20.00;77.70;;;;;;5113534;28;20423;-43
2023/08/04 13:37:47;;;;;;;;;;;20.10;77.70;;;;;;5113368;28;19908;-44
2023/08/04 13:40:13;;;;;;;;;;;20.10;77.70;;;;;;5113395;28;19915;-43
2023/08/04 13:42:40;;;;;;;;;;;20.20;77.70;;;;;;5113101;28;20352;-43
2023/08/04 13:45:06;;;;;;;;;;;20.30;77.60;;;;;;5113299;28;19908;-43
2023/08/04 13:47:31;;;;;;;;;;;20.40;77.50;;;;;;5113368;28;20311;-44
2023/08/04 13:49:56;;;;;;;;;;;20.50;77.30;;;;;;5112876;28;19961;-44
2023/08/04 13:52:22;;;;;;;;;;;20.60;77.20;;;;;;5112997;28;20351;-44
2023/08/04 13:54:47;;;;;;;;;;;20.70;77.10;;;;;;5112635;28;19960;-44
2023/08/04 13:57:13;;;;;;;;;;;20.70;77.10;;;;;;5112823;28;19912;-41
2023/08/04 13:59:38;;;;;;;;;;;20.80;77.20;;;;;;5112686;28;19916;-42
2023/08/04 14:02:05;;;;;;;;;;;20.90;77.20;;;;;;5112722;28;19914;-44
2023/08/04 14:04:31;;;;;;;;;;;21.00;77.10;;;;;;5112911;28;20003;-43
2023/08/04 14:06:57;;;;;;;;;;;21.10;76.80;;;;;;5112795;28;20339;-41
2023/08/04 14:09:23;;;;;;;;;;;21.10;76.70;;;;;;5113029;28;20023;-44